Lafayette, LA (70504)

6:11 AM CDT on June 30, 2015 (GMT -0500)
River Ranch Subdivision | | Change Station
CLOSE
Current Station
Personal Weather Station
Location: Lafayette, LA
Elevation: 31 ft
Nearby Weather Stations

Elev 31 ft 30.17 °N, 92.04 °W | Updated 11 seconds ago

Partly Cloudy
Partly Cloudy
76.9 °F
Feels Like 78 °F
N
0.0
Wind Variable Wind from SE
Gusts 0.0 mph

Today
High -- | Low -- °F
--% Chance of Precip.
Yesterday
High -- | Low -- °F
Precip. -- in
6:09 AM 8:13 PM
Waxing Gibbous, 97% visible
Pressure 30.04 in
Visibility 10.0 miles
Clouds Clear
Heat Index 78 °F
Dew Point 76 °F
Humidity 96%
Rainfall in
Snow Depth Not available.
UV 0.0 out of 12
Pollen 2.50 out of 12
Air Quality Not available.
Flu Activity Sporadic
METAR KLFT 301053Z 22005KT 10SM CLR 25/24 A3004 RMK AO2 SLP172 T02500239

More Conditions Fewer Conditions

Pressure 30.04 in
Visibility 10.0 miles
Clouds Clear
Heat Index 78 °F
Dew Point 76 °F
Humidity 96%
Rainfall in
Snow Depth Not available.
UV 0.0 out of 12
Pollen 2.50 out of 12
Air Quality Not available.
Flu Activity Sporadic
METAR KLFT 301053Z 22005KT 10SM CLR 25/24 A3004 RMK AO2 SLP172 T02500239

More Conditions Fewer Conditions

10-Day Weather Forecast

×

Almanac

Astronomy

Jun. 30, 2015 Rise Set
Actual Time
Civil Twilight
Nautical Twilight
Astronomical Twilight
Moon
Length of Visible Light
Length of Day
Tomorrow will be .
, % of the Moon is Illuminated

Today's Extremes

State Highs State Lows

Community

WunderPhotos

Upload Photos

1,833,975 photos uploaded!

WunderBlogs® & News

Nearby

Air Quality

  Air Quality AQ Index Pollutant
Not available.

Snow Depth

Station Depth Elevation

Earthquake Activity

City Distance Mag. Time & Date
Minimum magnitude displayed is 2.5.

Coastal Water Temperatures

Place Temperature

Stations

Nearby Weather Stations

Station Location Temp. Windchill Dew Point Humidity Wind Precip. Elev Updated Type